Airfield :
LOGIN :

Register | Disclaimer

   EN    FR    IT 

 










Legend :    VFR   Marginal VFR   IFR   Intensive IFR   Very Intensive IFR
Visi :
Ceiling :
>= 8 km
>= 3000ft
5 to 8 km
1000 to 3000 ft
1500m to 5 km
500 to 1000 ft
800 to 1500m
200 to 500 ft
< 800m
< 200 ft
Symbols :   Thunderstorms  Fog  Heavy snow  Heavy precipitations  Wind > 20 kt
SIGMETs :     Misc.  Thunderstorms  Icing  Turbulence  Mountain Waves  Volcanic Ashes






- Airport Elevation : 37 ft
- IATA code : HLY


EGOV - RAF Valley

CURRENT METAR :
  • 221250Z AUTO 20024KT 9999 REDZ OVC003/// 13/13 Q1009

EXPIRED METARs :
  • 221220Z AUTO 20022KT 7000 -DZ OVC003/// 14/14 Q1009
  • 221150Z AUTO 20022KT 5000 -RA OVC002/// 13/13 Q1009
  • 221120Z AUTO 20022KT 3200 -DZ OVC003/// 13/13 Q1009
  • 221050Z AUTO 19021KT 6000 REDZ OVC003/// 13/13 Q1010
  • 221020Z AUTO 19019KT 9000 REDZ OVC004/// 13/13 Q1010

Expired Forecast.



MET'MAP, your aeronautical weather chart ! - Copyright ORBIFLY December 2007 - Disclaimer

ORBIFLY MET'MAP TEAM :

Programming & Development : Alexandra Zaïnal
Original concept : Baudouin d'Aumeries
Technical & hardware support : Manuel Goepfert
Assistance : Marc-Olivier Méhu

Contact : metmap@orbifly.com




SOURCES & CREDITS :

   NOAA